Rapid City, SD

8:54 AM MDT on August 27, 2016 (GMT -0600)
APRSWXNET | | Change Station

Elev 3264 ft 44.08 °N, 103.21 °W | Updated 8 days ago

Partly Cloudy
Partly Cloudy
69 °F
Feels Like 69 °F
N
7
Wind Variable Wind from ESE
Gusts mph

Today
High -- | Low -- °F
--% Chance of Precip.
Yesterday
High -- | Low -- °F
Precip. -- in
Pressure 29.96 in
Visibility 10.0 miles
Clouds Clear
Dew Point 54 °F
Humidity 59%
Rainfall in
Snow Depth Not available.
6:10 AM 7:36 PM
Waning Crescent, 24% visible
METAR KRAP 271452Z 17011KT 10SM CLR 18/12 A2999 RMK AO2 SLP144 60001 T01830117 58002
Pressure 29.96 in
Visibility 10.0 miles
Clouds Clear
Dew Point 54 °F
Humidity 59%
Rainfall in
Snow Depth Not available.
6:10 AM 7:36 PM
Waning Crescent, 24% visible
METAR KRAP 271452Z 17011KT 10SM CLR 18/12 A2999 RMK AO2 SLP144 60001 T01830117 58002

10-Day Weather Forecast

Almanac

Astronomy

Aug. 27, 2016 Rise Set
Actual Time
Civil Twilight
Nautical Twilight
Astronomical Twilight
Moon
Length of Visible Light
Length of Day
Tomorrow will be .
, % of the Moon is Illuminated

Today's Extremes

State Highs State Lows

Community

WunderPhotos

Upload Photos

1,935,344 photos uploaded!

WunderBlog® & News

Nearby

Air Quality

  Air Quality AQ Index Pollutant
Not available.

Snow Depth

Station Depth Elevation

Earthquake Activity

City Distance Mag. Time & Date
Minimum magnitude displayed is 2.5.

Coastal Water Temperatures

Place Temperature

Stations

Nearby Weather Stations

Station Location Temp. Windchill Dew Point Humidity Wind Precip. Elev Updated Type
                   

Watches & Warnings

There are currently no watches in effect.